^^
B2 Weather Station Historical Data
Daily Summary for December 30, 2017 Units:  English    Metric   Both
Daily Weekly Monthly Yearly Custom
  High: Low: Average:
Temperature: 13.8 °F -3.1 °F 5.4 °F
Dew Point: 10.8 °F -9.1 °F -0.3 °F
Humidity: 88% 67% 77%
Wind Speed: 20.7mph 0.0mph 10.3mph
Wind Gust: 20.7mph - -
Wind- - WNW
Pressure: 30.54 in 30.24 in -
Precipitation: 0.00 in    
Historical Graphs
 
 
Tabular Data for December 30, 2017
Time Temperature Dew Point Pressure Wind Wind Speed Wind Gust Humidity Rainfall Rate (Hourly) solar
00:00 13.7 °F 10.8 °F 30.26 in Calm     88% 0.00 in 0.0 W/m2
00:05 13.7 °F 10.8 °F 30.26 in Calm     88% 0.00 in 0.0 W/m2
00:06 13.7 °F 10.8 °F 30.26 in Calm     88% 0.00 in 0.0 W/m2
00:11 13.7 °F 10.8 °F 30.26 in Calm     88% 0.00 in 0.0 W/m2
00:12 13.7 °F 10.8 °F 30.26 in West 1.2 mph   88% 0.00 in 0.0 W/m2
00:16 13.7 °F 10.8 °F 30.26 in Calm     88% 0.00 in 0.0 W/m2
00:18 13.7 °F 10.8 °F 30.26 in Calm     88% 0.00 in 0.0 W/m2
00:23 13.7 °F 10.8 °F 30.26 in Calm     88% 0.00 in 0.0 W/m2
00:24 13.7 °F 10.8 °F 30.26 in Calm     88% 0.00 in 0.0 W/m2
00:29 13.7 °F 10.8 °F 30.26 in Calm     88% 0.00 in 0.0 W/m2
00:30 13.7 °F 10.8 °F 30.26 in Calm     88% 0.00 in 0.0 W/m2
00:35 13.7 °F 10.8 °F 30.26 in Calm     88% 0.00 in 0.0 W/m2
00:39 13.7 °F 10.8 °F 30.25 in West 1.2 mph   88% 0.00 in 0.0 W/m2
00:40 13.7 °F 10.8 °F 30.25 in Calm     88% 0.00 in 0.0 W/m2
00:45 13.7 °F 10.8 °F 30.25 in West 1.2 mph 1.2 mph 88% 0.00 in 0.0 W/m2
00:46 13.7 °F 10.8 °F 30.25 in Calm     88% 0.00 in 0.0 W/m2
00:51 13.7 °F 10.8 °F 30.25 in Calm     88% 0.00 in 0.0 W/m2
00:52 13.7 °F 10.8 °F 30.25 in Calm     88% 0.00 in 0.0 W/m2
00:53 13.7 °F 10.8 °F 30.25 in Calm     88% 0.00 in 0.0 W/m2
00:58 13.7 °F 10.8 °F 30.24 in Calm     88% 0.00 in 0.0 W/m2
00:59 13.7 °F 10.8 °F 30.25 in Calm     88% 0.00 in 0.0 W/m2
01:03 13.6 °F 10.7 °F 30.25 in WNW 1.0 mph   88% 0.00 in 0.0 W/m2
01:04 13.7 °F 10.8 °F 30.25 in WNW 1.2 mph   88% 0.00 in 0.0 W/m2
01:09 13.6 °F 10.7 °F 30.25 in West 1.2 mph 1.2 mph 88% 0.00 in 0.0 W/m2
01:10 13.7 °F 10.8 °F 30.25 in Calm     88% 0.00 in 0.0 W/m2
01:11 13.7 °F 10.8 °F 30.25 in Calm     88% 0.00 in 0.0 W/m2
01:15 13.7 °F 10.8 °F 30.25 in Calm     88% 0.00 in 0.0 W/m2
01:20 13.7 °F 10.8 °F 30.25 in WNW 1.2 mph 1.2 mph 88% 0.00 in 0.0 W/m2
01:21 13.7 °F 10.8 °F 30.25 in West 1.2 mph   88% 0.00 in 0.0 W/m2
01:26 13.7 °F 10.8 °F 30.25 in West 5.8 mph 5.8 mph 88% 0.00 in 0.0 W/m2
01:27 13.7 °F 10.8 °F 30.25 in WNW 5.0 mph 5.0 mph 88% 0.00 in 0.0 W/m2
01:29 13.7 °F 10.8 °F 30.25 in WNW 3.5 mph 3.5 mph 88% 0.00 in 0.0 W/m2
01:33 13.7 °F 10.5 °F 30.25 in West 8.1 mph 8.1 mph 87% 0.00 in 0.0 W/m2
01:36 13.7 °F 10.5 °F 30.25 in West 5.8 mph 5.8 mph 87% 0.00 in 0.0 W/m2
01:38 13.7 °F 10.5 °F 30.25 in WNW 3.0 mph 3.0 mph 87% 0.00 in 0.0 W/m2
01:43 13.8 °F 10.6 °F 30.25 in West 6.9 mph 6.9 mph 87% 0.00 in 0.0 W/m2
01:44 13.8 °F 10.6 °F 30.26 in West 3.5 mph   87% 0.00 in 0.0 W/m2
01:49 13.8 °F 10.6 °F 30.25 in Calm     87% 0.00 in 0.0 W/m2
01:51 13.8 °F 10.6 °F 30.25 in WNW 4.6 mph 4.6 mph 87% 0.00 in 0.0 W/m2
01:56 13.8 °F 10.6 °F 30.25 in West 3.5 mph 3.5 mph 87% 0.00 in 0.0 W/m2
02:00 13.8 °F 10.6 °F 30.26 in Calm     87% 0.00 in 0.0 W/m2
02:01 13.8 °F 10.6 °F 30.26 in Calm     87% 0.00 in 0.0 W/m2
02:06 13.8 °F 10.6 °F 30.26 in West 6.9 mph   87% 0.00 in 0.0 W/m2
02:07 13.8 °F 10.6 °F 30.26 in WSW 8.1 mph 8.1 mph 87% 0.00 in 0.0 W/m2
02:12 13.8 °F 10.6 °F 30.26 in WNW 5.8 mph 5.8 mph 87% 0.00 in 0.0 W/m2
02:17 13.8 °F 10.6 °F 30.26 in WNW 3.5 mph 3.5 mph 87% 0.00 in 0.0 W/m2
02:19 13.7 °F 10.5 °F 30.25 in Calm   0.3 mph 87% 0.00 in 0.0 W/m2
02:20 13.8 °F 10.6 °F 30.25 in WNW 3.5 mph 3.5 mph 87% 0.00 in 0.0 W/m2
02:25 13.7 °F 10.5 °F 30.25 in Calm     87% 0.00 in 0.0 W/m2
02:30 13.7 °F 10.5 °F 30.25 in West 10.4 mph 10.4 mph 87% 0.00 in 0.0 W/m2
02:31 13.7 °F 10.5 °F 30.25 in WNW 6.9 mph 6.9 mph 87% 0.00 in 0.0 W/m2
02:34 13.7 °F 10.5 °F 30.25 in West 8.1 mph 8.1 mph 87% 0.00 in 0.0 W/m2
02:37 13.7 °F 10.5 °F 30.25 in WNW 9.2 mph 9.2 mph 87% 0.00 in 0.0 W/m2
02:42 13.6 °F 10.5 °F 30.26 in WNW 8.1 mph 8.1 mph 87% 0.00 in 0.0 W/m2
02:47 13.6 °F 10.5 °F 30.26 in WNW 3.5 mph 3.5 mph 87% 0.00 in 0.0 W/m2
02:50 13.6 °F 10.5 °F 30.26 in WNW 8.1 mph 8.1 mph 87% 0.00 in 0.0 W/m2
02:55 13.6 °F 10.5 °F 30.26 in WNW 8.1 mph 8.1 mph 87% 0.00 in 0.0 W/m2
02:57 13.6 °F 10.5 °F 30.27 in WNW 6.9 mph 6.9 mph 87% 0.00 in 0.0 W/m2
03:02 13.5 °F 10.4 °F 30.27 in WNW 6.9 mph 6.9 mph 87% 0.00 in 0.0 W/m2
03:05 13.5 °F 10.4 °F 30.27 in West 4.6 mph 4.6 mph 87% 0.00 in 0.0 W/m2
03:08 13.5 °F 10.4 °F 30.27 in WNW 9.2 mph 9.2 mph 87% 0.00 in 0.0 W/m2
03:13 13.4 °F 10.3 °F 30.27 in WNW 10.4 mph 10.4 mph 87% 0.00 in 0.0 W/m2
03:14 13.4 °F 10.3 °F 30.27 in WNW 5.8 mph 5.8 mph 87% 0.00 in 0.0 W/m2
03:19 13.4 °F 10.0 °F 30.27 in NW 11.5 mph 11.5 mph 86% 0.00 in 0.0 W/m2
03:20 13.4 °F 10.0 °F 30.27 in NW 8.1 mph 8.1 mph 86% 0.00 in 0.0 W/m2
03:21 13.4 °F 10.0 °F 30.27 in NW 9.2 mph 9.2 mph 86% 0.00 in 0.0 W/m2
03:26 13.3 °F 9.9 °F 30.27 in NW 9.2 mph 9.2 mph 86% 0.00 in 0.0 W/m2
03:29 13.3 °F 9.9 °F 30.27 in WNW 6.9 mph 6.9 mph 86% 0.00 in 0.0 W/m2
03:31 13.2 °F 9.8 °F 30.27 in WNW 9.2 mph 9.2 mph 86% 0.00 in 0.0 W/m2
03:36 13.1 °F 9.7 °F 30.27 in NW 8.0 mph 8.0 mph 86% 0.00 in 0.0 W/m2
03:37 13.1 °F 9.7 °F 30.27 in West 9.2 mph 9.2 mph 86% 0.00 in 0.0 W/m2
03:39 13.1 °F 9.7 °F 30.27 in NW 11.5 mph 11.5 mph 86% 0.00 in 0.0 W/m2
03:42 13.1 °F 9.7 °F 30.27 in West 10.4 mph 10.4 mph 86% 0.00 in 0.0 W/m2
03:47 13.0 °F 9.6 °F 30.27 in WNW 4.0 mph 4.0 mph 86% 0.00 in 0.0 W/m2
03:49 13.0 °F 9.6 °F 30.27 in WNW 9.2 mph 9.2 mph 86% 0.00 in 0.0 W/m2
03:54 12.9 °F 9.5 °F 30.26 in WNW 11.5 mph 11.5 mph 86% 0.00 in 0.0 W/m2
03:55 12.9 °F 9.5 °F 30.27 in NW 9.2 mph 9.2 mph 86% 0.00 in 0.0 W/m2
04:00 12.8 °F 9.4 °F 30.26 in WNW 6.9 mph 6.9 mph 86% 0.00 in 0.0 W/m2
04:01 12.8 °F 9.4 °F 30.26 in WNW 5.8 mph 5.8 mph 86% 0.00 in 0.0 W/m2
04:06 12.8 °F 9.4 °F 30.27 in WNW 9.2 mph 9.2 mph 86% 0.00 in 0.0 W/m2
04:08 12.7 °F 9.3 °F 30.27 in WNW 9.2 mph 9.2 mph 86% 0.00 in 0.0 W/m2
04:11 12.6 °F 8.9 °F 30.27 in NW 8.1 mph 8.1 mph 85% 0.00 in 0.0 W/m2
04:15 12.5 °F 8.8 °F 30.27 in West 9.2 mph 9.2 mph 85% 0.00 in 0.0 W/m2
04:17 12.5 °F 8.8 °F 30.27 in WNW 6.0 mph 6.0 mph 85% 0.00 in 0.0 W/m2
04:22 12.3 °F 8.7 °F 30.27 in NW 9.2 mph 9.2 mph 85% 0.00 in 0.0 W/m2
04:26 12.2 °F 8.3 °F 30.27 in WNW 12.7 mph 12.7 mph 84% 0.00 in 0.0 W/m2
04:29 12.1 °F 8.2 °F 30.27 in WNW 11.5 mph 11.5 mph 84% 0.00 in 0.0 W/m2
04:31 12.1 °F 8.2 °F 30.27 in WNW 12.7 mph 12.7 mph 84% 0.00 in 0.0 W/m2
04:36 11.9 °F 8.0 °F 30.27 in NW 11.5 mph 11.5 mph 84% 0.00 in 0.0 W/m2
04:41 11.8 °F 7.9 °F 30.27 in NW 13.8 mph 13.8 mph 84% 0.00 in 0.0 W/m2
04:46 11.8 °F 7.9 °F 30.27 in WNW 11.5 mph 11.5 mph 84% 0.00 in 0.0 W/m2
04:47 11.7 °F 7.8 °F 30.28 in WNW 10.0 mph 10.0 mph 84% 0.00 in 0.0 W/m2
04:50 11.7 °F 7.8 °F 30.28 in NW 11.5 mph 11.5 mph 84% 0.00 in 0.0 W/m2
04:53 11.6 °F 7.7 °F 30.28 in WNW 10.4 mph 10.4 mph 84% 0.00 in 0.0 W/m2
04:58 11.6 °F 7.7 °F 30.28 in NW 11.5 mph 11.5 mph 84% 0.00 in 0.0 W/m2
05:00 11.5 °F 7.6 °F 30.28 in NW 11.5 mph 11.5 mph 84% 0.00 in 0.0 W/m2
05:05 11.5 °F 7.6 °F 30.28 in NW 10.4 mph 10.4 mph 84% 0.00 in 0.0 W/m2
05:06 11.5 °F 7.6 °F 30.28 in NW 11.5 mph 11.5 mph 84% 0.00 in 0.0 W/m2
05:08 11.4 °F 7.5 °F 30.28 in WNW 11.5 mph 11.5 mph 84% 0.00 in 0.0 W/m2
05:11 11.4 °F 7.5 °F 30.29 in WNW 13.8 mph 13.8 mph 84% 0.00 in 0.0 W/m2
05:16 11.4 °F 7.5 °F 30.29 in WNW 3.5 mph 3.5 mph 84% 0.00 in 0.0 W/m2
05:18 11.4 °F 7.5 °F 30.28 in WNW 11.5 mph 11.5 mph 84% 0.00 in 0.0 W/m2
05:19 11.4 °F 7.5 °F 30.28 in West 10.4 mph 10.4 mph 84% 0.00 in 0.0 W/m2
05:23 11.3 °F 7.4 °F 30.28 in NW 5.0 mph 5.0 mph 84% 0.00 in 0.0 W/m2
05:24 11.3 °F 7.4 °F 30.28 in West 11.5 mph 11.5 mph 84% 0.00 in 0.0 W/m2
05:28 11.2 °F 7.3 °F 30.28 in NW 12.7 mph 12.7 mph 84% 0.00 in 0.0 W/m2
05:33 11.1 °F 7.2 °F 30.29 in WNW 13.8 mph 13.8 mph 84% 0.00 in 0.0 W/m2
05:35 11.0 °F 7.1 °F 30.29 in NW 12.7 mph 12.7 mph 84% 0.00 in 0.0 W/m2
05:36 11.0 °F 7.1 °F 30.29 in NW 11.0 mph 11.0 mph 84% 0.00 in 0.0 W/m2
05:41 10.8 °F 6.9 °F 30.29 in NW 12.7 mph 12.7 mph 84% 0.00 in 0.0 W/m2
05:43 10.8 °F 6.9 °F 30.29 in NW 15.0 mph 15.0 mph 84% 0.00 in 0.0 W/m2
05:48 10.7 °F 6.8 °F 30.29 in WNW 11.5 mph 11.5 mph 84% 0.00 in 0.0 W/m2
05:53 10.5 °F 6.6 °F 30.29 in NW 12.7 mph 12.7 mph 84% 0.00 in 0.0 W/m2
05:54 10.5 °F 6.6 °F 30.30 in West 13.8 mph 13.8 mph 84% 0.00 in 0.0 W/m2
05:57 10.5 °F 6.6 °F 30.30 in West 12.7 mph 12.7 mph 84% 0.00 in 0.0 W/m2
06:02 10.4 °F 6.3 °F 30.30 in NW 11.5 mph 11.5 mph 83% 0.00 in 0.0 W/m2
06:04 10.4 °F 6.3 °F 30.30 in NW 11.5 mph 11.5 mph 83% 0.00 in 0.0 W/m2
06:06 10.4 °F 6.3 °F 30.30 in NW 11.5 mph 11.5 mph 83% 0.00 in 0.0 W/m2
06:11 10.3 °F 6.2 °F 30.30 in NW 11.5 mph 11.5 mph 83% 0.00 in 0.0 W/m2
06:12 10.3 °F 6.2 °F 30.30 in WNW 10.4 mph 10.4 mph 83% 0.00 in 0.0 W/m2
06:16 10.2 °F 6.1 °F 30.30 in WNW 15.0 mph 15.0 mph 83% 0.00 in 0.0 W/m2
06:19 10.1 °F 6.0 °F 30.30 in WSW 11.5 mph 11.5 mph 83% 0.00 in 0.0 W/m2
06:21 10.0 °F 5.9 °F 30.30 in WNW 11.5 mph 11.5 mph 83% 0.00 in 0.0 W/m2
06:26 9.9 °F 5.5 °F 30.30 in West 11.5 mph 11.5 mph 82% 0.00 in 0.0 W/m2
06:28 9.8 °F 5.4 °F 30.30 in WNW 11.5 mph 11.5 mph 82% 0.00 in 0.0 W/m2
06:29 9.8 °F 5.4 °F 30.30 in NW 11.5 mph 11.5 mph 82% 0.00 in 0.0 W/m2
06:34 9.7 °F 5.3 °F 30.30 in WNW 13.8 mph 13.8 mph 82% 0.00 in 0.0 W/m2
06:39 9.6 °F 5.5 °F 30.31 in WNW 10.4 mph 10.4 mph 83% 0.00 in 0.0 W/m2
06:40 9.6 °F 5.5 °F 30.31 in WNW 12.7 mph 12.7 mph 83% 0.00 in 0.0 W/m2
06:41 9.6 °F 5.5 °F 30.31 in NW 10.4 mph 10.4 mph 83% 0.00 in 0.0 W/m2
06:46 9.4 °F 5.0 °F 30.31 in WNW 11.5 mph 11.5 mph 82% 0.00 in 0.0 W/m2
06:47 9.4 °F 5.0 °F 30.31 in WNW 13.8 mph 13.8 mph 82% 0.00 in 0.0 W/m2
06:48 9.4 °F 5.0 °F 30.31 in West 11.5 mph 11.5 mph 82% 0.00 in 0.0 W/m2
06:52 9.2 °F 4.8 °F 30.31 in WNW 10.4 mph 10.4 mph 82% 0.00 in 0.0 W/m2
06:54 9.2 °F 4.8 °F 30.31 in NW 13.8 mph 13.8 mph 82% 0.00 in 0.0 W/m2
06:58 9.1 °F 4.7 °F 30.32 in NW 15.0 mph 15.0 mph 82% 0.00 in 0.0 W/m2
07:03 9.0 °F 4.6 °F 30.32 in WNW 13.8 mph 13.8 mph 82% 0.00 in 0.0 W/m2
07:06 8.8 °F 4.2 °F 30.32 in NW 13.8 mph 13.8 mph 81% 0.00 in 0.0 W/m2
07:07 8.8 °F 4.2 °F 30.33 in NW 15.0 mph 15.0 mph 81% 0.00 in 0.0 W/m2
07:12 8.7 °F 4.1 °F 30.33 in NW 17.3 mph 17.3 mph 81% 0.00 in 0.0 W/m2
07:13 8.6 °F 4.0 °F 30.33 in WNW 13.8 mph 13.8 mph 81% 0.00 in 0.0 W/m2
07:15 8.6 °F 4.0 °F 30.33 in WNW 13.8 mph 13.8 mph 81% 0.00 in 0.0 W/m2
07:18 8.5 °F 3.9 °F 30.33 in WNW 13.0 mph 13.0 mph 81% 0.00 in 0.0 W/m2
07:23 8.4 °F 3.8 °F 30.33 in NW 15.0 mph 15.0 mph 81% 0.00 in 0.0 W/m2
07:24 8.3 °F 3.7 °F 30.33 in WNW 16.1 mph 16.1 mph 81% 0.00 in 0.0 W/m2
07:25 8.3 °F 3.7 °F 30.33 in WNW 16.1 mph 16.1 mph 81% 0.00 in 0.0 W/m2
07:30 8.2 °F 3.6 °F 30.33 in NW 11.5 mph 11.5 mph 81% 0.00 in 0.0 W/m2
07:32 8.2 °F 3.8 °F 30.34 in NW 11.5 mph 11.5 mph 82% 0.00 in 0.0 W/m2
07:37 8.0 °F 3.4 °F 30.34 in NW 16.1 mph 16.1 mph 81% 0.00 in 5.0 W/m2
07:39 7.9 °F 3.3 °F 30.34 in NNW 11.5 mph 11.5 mph 81% 0.00 in 5.0 W/m2
07:43 7.7 °F 3.1 °F 30.34 in West 11.5 mph 11.5 mph 81% 0.00 in 9.0 W/m2
07:44 7.6 °F 3.0 °F 30.34 in NW 12.0 mph 12.0 mph 81% 0.00 in 9.0 W/m2
07:45 7.6 °F 3.0 °F 30.34 in NNW 15.0 mph 15.0 mph 81% 0.00 in 11.0 W/m2
07:49 7.5 °F 2.9 °F 30.35 in NW 16.1 mph 16.1 mph 81% 0.00 in 12.0 W/m2
07:53 7.4 °F 3.1 °F 30.35 in West 18.4 mph 18.4 mph 82% 0.00 in 18.0 W/m2
07:55 7.4 °F 3.1 °F 30.35 in NW 13.8 mph 13.8 mph 82% 0.00 in 18.0 W/m2
07:59 7.3 °F 2.7 °F 30.35 in NW 19.6 mph 19.6 mph 81% 0.00 in 19.0 W/m2
08:02 7.2 °F 2.6 °F 30.35 in NW 15.0 mph 15.0 mph 81% 0.00 in 19.0 W/m2
08:04 7.2 °F 2.6 °F 30.35 in West 16.1 mph 16.1 mph 81% 0.00 in 19.0 W/m2
08:08 7.1 °F 2.5 °F 30.35 in NW 15.0 mph 15.0 mph 81% 0.00 in 19.0 W/m2
08:13 6.9 °F 2.0 °F 30.35 in NW 13.0 mph 13.0 mph 80% 0.00 in 19.0 W/m2
08:14 6.8 °F 2.2 °F 30.35 in WNW 18.4 mph 18.4 mph 81% 0.00 in 19.0 W/m2
08:19 6.6 °F 1.7 °F 30.36 in NW 15.0 mph 15.0 mph 80% 0.00 in 18.0 W/m2
08:24 6.4 °F 1.5 °F 30.36 in NW 11.5 mph 11.5 mph 80% 0.00 in 19.0 W/m2
08:25 6.4 °F 1.5 °F 30.36 in NW 12.0 mph 12.0 mph 80% 0.00 in 19.0 W/m2
08:27 6.4 °F 1.5 °F 30.36 in NW 15.0 mph 15.0 mph 80% 0.00 in 18.0 W/m2
08:31 6.3 °F 1.4 °F 30.36 in NW 15.0 mph 15.0 mph 80% 0.00 in 21.0 W/m2
08:33 6.2 °F 1.4 °F 30.37 in WNW 11.5 mph 11.5 mph 80% 0.00 in 25.0 W/m2
08:38 6.0 °F 0.9 °F 30.37 in NW 16.1 mph 16.1 mph 79% 0.00 in 25.0 W/m2
08:43 5.9 °F 0.8 °F 30.37 in NW 13.8 mph 13.8 mph 79% 0.00 in 26.0 W/m2
08:48 5.8 °F 0.4 °F 30.37 in NW 10.4 mph 10.4 mph 78% 0.00 in 25.0 W/m2
08:49 5.8 °F 0.4 °F 30.37 in WNW 10.4 mph 10.4 mph 78% 0.00 in 25.0 W/m2
08:53 5.7 °F 0.3 °F 30.37 in NW 12.7 mph 12.7 mph 78% 0.00 in 40.0 W/m2
08:56 5.7 °F 0.3 °F 30.37 in WNW 14.0 mph 14.0 mph 78% 0.00 in 40.0 W/m2
09:01 5.8 °F 0.4 °F 30.37 in NW 13.0 mph 13.0 mph 78% 0.00 in 42.0 W/m2
09:06 5.7 °F 0.0 °F 30.38 in NW 19.6 mph 19.6 mph 77% 0.00 in 46.0 W/m2
09:07 5.7 °F 0.0 °F 30.38 in NW 19.6 mph 19.6 mph 77% 0.00 in 46.0 W/m2
09:13 5.6 °F -0.1 °F 30.38 in NW 14.0 mph 14.0 mph 77% 0.00 in 49.0 W/m2
09:18 5.6 °F -0.1 °F 30.38 in NW 15.0 mph 15.0 mph 77% 0.00 in 54.0 W/m2
09:23 5.6 °F -0.3 °F 30.38 in NW 16.1 mph 16.1 mph 76% 0.00 in 74.0 W/m2
09:25 5.7 °F 0.0 °F 30.38 in NW 17.3 mph 17.3 mph 77% 0.00 in 83.0 W/m2
09:29 5.8 °F 0.1 °F 30.38 in NW 13.8 mph 13.8 mph 77% 0.00 in 67.0 W/m2
09:34 5.7 °F -0.2 °F 30.39 in NW 13.8 mph 13.8 mph 76% 0.00 in 47.0 W/m2
09:35 5.6 °F -0.3 °F 30.39 in NW 16.1 mph 16.1 mph 76% 0.00 in 53.0 W/m2
09:40 5.4 °F -0.5 °F 30.38 in WNW 13.8 mph 13.8 mph 76% 0.00 in 53.0 W/m2
09:42 5.3 °F -0.6 °F 30.38 in NW 13.8 mph 13.8 mph 76% 0.00 in 60.0 W/m2
09:43 5.3 °F -0.6 °F 30.38 in NW 15.0 mph 15.0 mph 76% 0.00 in 62.0 W/m2
09:47 5.2 °F -1.0 °F 30.38 in NW 15.0 mph 15.0 mph 75% 0.00 in 63.0 W/m2
09:52 5.2 °F -1.0 °F 30.39 in NW 18.4 mph 18.4 mph 75% 0.00 in 62.0 W/m2
09:54 5.1 °F -1.1 °F 30.39 in NW 15.0 mph 15.0 mph 75% 0.00 in 69.0 W/m2
09:59 5.1 °F -1.4 °F 30.39 in NW 18.4 mph 18.4 mph 74% 0.00 in 60.0 W/m2
10:00 5.1 °F -1.4 °F 30.39 in NW 19.6 mph 19.6 mph 74% 0.00 in 60.0 W/m2
10:04 5.0 °F -1.8 °F 30.39 in NW 13.8 mph 13.8 mph 73% 0.00 in 56.0 W/m2
10:07 4.9 °F -1.9 °F 30.39 in NW 18.0 mph 18.0 mph 73% 0.00 in 42.0 W/m2
10:10 4.8 °F -2.0 °F 30.39 in NW 15.0 mph 15.0 mph 73% 0.00 in 60.0 W/m2
10:15 4.9 °F -1.9 °F 30.39 in NW 16.1 mph 16.1 mph 73% 0.00 in 72.0 W/m2
10:16 4.9 °F -1.9 °F 30.39 in WNW 17.3 mph 17.3 mph 73% 0.00 in 74.0 W/m2
10:21 5.0 °F -1.8 °F 30.39 in NW 16.0 mph 16.0 mph 73% 0.00 in 74.0 W/m2
10:22 5.0 °F -1.8 °F 30.39 in NW 16.1 mph 16.1 mph 73% 0.00 in 74.0 W/m2
10:27 5.1 °F -2.0 °F 30.39 in NW 16.0 mph 16.0 mph 72% 0.00 in 79.0 W/m2
10:32 5.1 °F -2.0 °F 30.39 in NNW 16.1 mph 16.1 mph 72% 0.00 in 278.0 W/m2
10:34 5.1 °F -2.0 °F 30.39 in NW 19.6 mph 19.6 mph 72% 0.00 in 283.0 W/m2
10:36 5.1 °F -1.7 °F 30.39 in NNW 17.3 mph 17.3 mph 73% 0.00 in 278.0 W/m2
10:40 5.1 °F -1.4 °F 30.39 in NW 11.5 mph 11.5 mph 74% 0.00 in 288.0 W/m2
10:41 5.1 °F -1.4 °F 30.39 in NW 11.0 mph 11.0 mph 74% 0.00 in 287.0 W/m2
10:44 5.2 °F -1.3 °F 30.39 in NW 17.3 mph 17.3 mph 74% 0.00 in 295.0 W/m2
10:46 5.2 °F -1.3 °F 30.39 in NNW 17.3 mph 17.3 mph 74% 0.00 in 290.0 W/m2
10:51 5.0 °F -2.1 °F 30.39 in NW 17.3 mph 17.3 mph 72% 0.00 in 318.0 W/m2
10:52 4.9 °F -2.2 °F 30.39 in NW 20.7 mph 20.7 mph 72% 0.00 in 323.0 W/m2
10:57 4.8 °F -2.5 °F 30.39 in WNW 16.1 mph 16.1 mph 71% 0.00 in 336.0 W/m2
10:59 4.7 °F -2.6 °F 30.40 in NW 18.4 mph 18.4 mph 71% 0.00 in 341.0 W/m2
11:00 4.7 °F -2.6 °F 30.40 in NW 18.4 mph 18.4 mph 71% 0.00 in 345.0 W/m2
11:05 4.9 °F -2.2 °F 30.40 in NW 11.5 mph 11.5 mph 72% 0.00 in 355.0 W/m2
11:09 4.9 °F -2.2 °F 30.40 in West 13.8 mph 13.8 mph 72% 0.00 in 371.0 W/m2
11:11 4.9 °F -2.2 °F 30.40 in NW 15.0 mph 15.0 mph 72% 0.00 in 376.0 W/m2
11:15 4.7 °F -2.3 °F 30.40 in NW 18.4 mph 18.4 mph 72% 0.00 in 454.0 W/m2
11:17 4.7 °F -2.3 °F 30.40 in NW 18.4 mph 18.4 mph 72% 0.00 in 455.0 W/m2
11:22 4.7 °F -2.3 °F 30.40 in WNW 15.0 mph 15.0 mph 72% 0.00 in 462.0 W/m2
11:24 4.7 °F -2.6 °F 30.40 in NW 16.1 mph 16.1 mph 71% 0.00 in 469.0 W/m2
11:29 4.6 °F -3.0 °F 30.40 in NW 15.0 mph 15.0 mph 70% 0.00 in 457.0 W/m2
11:30 4.6 °F -3.0 °F 30.40 in NW 15.0 mph 15.0 mph 70% 0.00 in 482.0 W/m2
11:35 4.6 °F -3.3 °F 30.39 in NW 20.0 mph 20.0 mph 69% 0.00 in 468.0 W/m2
11:36 4.6 °F -3.3 °F 30.40 in NW 19.6 mph 19.6 mph 69% 0.00 in 497.0 W/m2
11:38 4.6 °F -3.3 °F 30.40 in NW 18.4 mph 18.4 mph 69% 0.00 in 378.0 W/m2
11:43 4.6 °F -3.0 °F 30.40 in NW 13.8 mph 13.8 mph 70% 0.00 in 322.0 W/m2
11:48 4.4 °F -3.2 °F 30.40 in NW 16.1 mph 16.1 mph 70% 0.00 in 497.0 W/m2
11:49 4.4 °F -3.2 °F 30.40 in WNW 16.1 mph 16.1 mph 70% 0.00 in 497.0 W/m2
11:54 4.5 °F -3.1 °F 30.40 in NW 11.5 mph 11.5 mph 70% 0.00 in 454.0 W/m2
11:55 4.5 °F -3.1 °F 30.40 in NW 11.5 mph 11.5 mph 70% 0.00 in 452.0 W/m2
12:00 4.4 °F -3.2 °F 30.39 in NW 17.3 mph 17.3 mph 70% 0.00 in 482.0 W/m2
12:02 4.3 °F -3.3 °F 30.39 in NW 12.7 mph 12.7 mph 70% 0.00 in 480.0 W/m2
12:03 4.3 °F -3.3 °F 30.39 in WNW 13.8 mph 13.8 mph 70% 0.00 in 483.0 W/m2
12:08 4.3 °F -3.3 °F 30.39 in NW 16.1 mph 16.1 mph 70% 0.00 in 482.0 W/m2
12:11 4.4 °F -3.2 °F 30.39 in WNW 16.1 mph 16.1 mph 70% 0.00 in 475.0 W/m2
12:13 4.3 °F -3.3 °F 30.39 in WNW 17.3 mph 17.3 mph 70% 0.00 in 475.0 W/m2
12:16 4.2 °F -3.7 °F 30.40 in WNW 17.3 mph 17.3 mph 69% 0.00 in 471.0 W/m2
12:20 4.2 °F -3.7 °F 30.39 in NW 16.1 mph 16.1 mph 69% 0.00 in 468.0 W/m2
12:23 4.3 °F -3.3 °F 30.39 in WNW 15.0 mph 15.0 mph 70% 0.00 in 464.0 W/m2
12:26 4.3 °F -3.3 °F 30.39 in NW 16.1 mph 16.1 mph 70% 0.00 in 464.0 W/m2
12:28 4.3 °F -3.3 °F 30.39 in NW 13.8 mph 13.8 mph 70% 0.00 in 464.0 W/m2
12:33 4.2 °F -3.4 °F 30.39 in NW 19.6 mph 19.6 mph 70% 0.00 in 461.0 W/m2
12:35 4.1 °F -3.8 °F 30.39 in NW 16.0 mph 16.0 mph 69% 0.00 in 457.0 W/m2
12:40 4.1 °F -3.5 °F 30.39 in NW 12.7 mph 12.7 mph 70% 0.00 in 450.0 W/m2
12:45 4.2 °F -3.7 °F 30.40 in NW 19.6 mph 19.6 mph 69% 0.00 in 469.0 W/m2
12:51 4.0 °F -3.9 °F 30.40 in NW 16.1 mph 16.1 mph 69% 0.00 in 383.0 W/m2
12:56 4.3 °F -3.6 °F 30.40 in WNW 12.7 mph 12.7 mph 69% 0.00 in 427.0 W/m2
12:58 4.4 °F -3.5 °F 30.40 in West 11.5 mph 11.5 mph 69% 0.00 in 262.0 W/m2
12:59 4.4 °F -3.5 °F 30.39 in NW 10.4 mph 10.4 mph 69% 0.00 in 306.0 W/m2
13:03 4.6 °F -3.3 °F 30.39 in NW 12.7 mph 12.7 mph 69% 0.00 in 545.0 W/m2
13:07 4.9 °F -3.1 °F 30.39 in NW 10.4 mph 10.4 mph 69% 0.00 in 411.0 W/m2
13:09 4.9 °F -3.1 °F 30.39 in WNW 13.8 mph 13.8 mph 69% 0.00 in 557.0 W/m2
13:12 5.0 °F -3.0 °F 30.39 in NW 13.8 mph 13.8 mph 69% 0.00 in 541.0 W/m2
13:13 5.0 °F -3.3 °F 30.39 in NW 12.7 mph 12.7 mph 68% 0.00 in 552.0 W/m2
13:18 5.1 °F -3.2 °F 30.39 in NW 13.8 mph 13.8 mph 68% 0.00 in 596.0 W/m2
13:19 5.1 °F -3.2 °F 30.39 in NW 16.1 mph 16.1 mph 68% 0.00 in 596.0 W/m2
13:24 5.3 °F -3.0 °F 30.39 in NNW 12.7 mph 12.7 mph 68% 0.00 in 596.0 W/m2
13:25 5.3 °F -2.7 °F 30.39 in NW 13.8 mph 13.8 mph 69% 0.00 in 594.0 W/m2
13:30 5.6 °F -2.4 °F 30.39 in West 13.8 mph 13.8 mph 69% 0.00 in 487.0 W/m2
13:31 5.6 °F -2.4 °F 30.39 in WNW 12.7 mph 12.7 mph 69% 0.00 in 499.0 W/m2
13:36 5.5 °F -2.8 °F 30.39 in WNW 10.4 mph 10.4 mph 68% 0.00 in 439.0 W/m2
13:38 5.5 °F -2.8 °F 30.39 in NW 15.0 mph 15.0 mph 68% 0.00 in 380.0 W/m2
13:43 5.4 °F -2.9 °F 30.40 in NW 16.1 mph 16.1 mph 68% 0.00 in 417.0 W/m2
13:44 5.4 °F -2.9 °F 30.40 in NNW 13.0 mph 13.0 mph 68% 0.00 in 396.0 W/m2
13:49 5.1 °F -3.5 °F 30.40 in WNW 11.5 mph 11.5 mph 67% 0.00 in 359.0 W/m2
13:50 5.1 °F -3.2 °F 30.40 in WNW 16.1 mph 16.1 mph 68% 0.00 in 364.0 W/m2
13:51 5.1 °F -3.2 °F 30.40 in NW 16.1 mph 16.1 mph 68% 0.00 in 353.0 W/m2
13:56 5.0 °F -3.3 °F 30.40 in NW 11.5 mph 11.5 mph 68% 0.00 in 357.0 W/m2
13:59 5.1 °F -2.9 °F 30.40 in NW 13.0 mph 13.0 mph 69% 0.00 in 355.0 W/m2
14:01 5.1 °F -3.2 °F 30.40 in WNW 11.5 mph 11.5 mph 68% 0.00 in 348.0 W/m2
14:06 4.9 °F -3.4 °F 30.40 in WNW 16.1 mph 16.1 mph 68% 0.00 in 341.0 W/m2
14:09 4.8 °F -3.5 °F 30.40 in NW 11.5 mph 11.5 mph 68% 0.00 in 341.0 W/m2
14:14 4.7 °F -3.6 °F 30.40 in WNW 13.0 mph 13.0 mph 68% 0.00 in 323.0 W/m2
14:17 4.7 °F -3.6 °F 30.40 in NW 16.1 mph 16.1 mph 68% 0.00 in 315.0 W/m2
14:22 4.2 °F -4.3 °F 30.40 in NW 17.3 mph 17.3 mph 67% 0.00 in 302.0 W/m2
14:27 4.1 °F -4.4 °F 30.40 in NW 11.5 mph 11.5 mph 67% 0.00 in 290.0 W/m2
14:29 4.0 °F -4.5 °F 30.40 in NW 11.5 mph 11.5 mph 67% 0.00 in 288.0 W/m2
14:34 4.1 °F -4.1 °F 30.41 in NW 10.4 mph 10.4 mph 68% 0.00 in 274.0 W/m2
14:36 4.2 °F -4.0 °F 30.41 in NW 11.5 mph 11.5 mph 68% 0.00 in 271.0 W/m2
14:40 4.2 °F -4.0 °F 30.41 in WNW 10.4 mph 10.4 mph 68% 0.00 in 258.0 W/m2
14:45 4.3 °F -3.9 °F 30.42 in NW 12.7 mph 12.7 mph 68% 0.00 in 246.0 W/m2
14:49 4.1 °F -3.8 °F 30.41 in NW 12.7 mph 12.7 mph 69% 0.00 in 232.0 W/m2
14:52 4.1 °F -4.1 °F 30.42 in WNW 13.8 mph 13.8 mph 68% 0.00 in 225.0 W/m2
14:54 4.1 °F -4.1 °F 30.42 in WNW 10.4 mph 10.4 mph 68% 0.00 in 218.0 W/m2
14:59 4.0 °F -4.2 °F 30.42 in NW 13.8 mph 13.8 mph 68% 0.00 in 202.0 W/m2
15:04 3.8 °F -4.7 °F 30.42 in WNW 12.7 mph 12.7 mph 67% 0.00 in 186.0 W/m2
15:05 3.8 °F -4.7 °F 30.42 in WNW 16.1 mph 16.1 mph 67% 0.00 in 185.0 W/m2
15:10 3.7 °F -4.5 °F 30.42 in WNW 11.5 mph 11.5 mph 68% 0.00 in 167.0 W/m2
15:11 3.7 °F -4.5 °F 30.42 in WNW 11.5 mph 11.5 mph 68% 0.00 in 167.0 W/m2
15:13 3.6 °F -4.9 °F 30.42 in WNW 8.1 mph 8.1 mph 67% 0.00 in 160.0 W/m2
15:16 3.7 °F -4.5 °F 30.42 in NW 9.2 mph 9.2 mph 68% 0.00 in 146.0 W/m2
15:19 3.6 °F -4.6 °F 30.42 in NW 10.4 mph 10.4 mph 68% 0.00 in 142.0 W/m2
15:24 3.5 °F -4.7 °F 30.43 in WNW 11.5 mph 11.5 mph 68% 0.00 in 127.0 W/m2
15:25 3.5 °F -4.7 °F 30.43 in WNW 9.2 mph 9.2 mph 68% 0.00 in 114.0 W/m2
15:26 3.5 °F -4.7 °F 30.43 in WNW 9.2 mph 9.2 mph 68% 0.00 in 118.0 W/m2
15:31 3.5 °F -4.7 °F 30.43 in WNW 10.4 mph 10.4 mph 68% 0.00 in 105.0 W/m2
15:32 3.5 °F -4.7 °F 30.43 in NW 8.1 mph 8.1 mph 68% 0.00 in 102.0 W/m2
15:37 3.1 °F -5.1 °F 30.43 in WNW 11.5 mph 11.5 mph 68% 0.00 in 63.0 W/m2
15:42 3.0 °F -5.2 °F 30.43 in NW 11.5 mph 11.5 mph 68% 0.00 in 26.0 W/m2
15:43 3.0 °F -4.9 °F 30.43 in NW 11.5 mph 11.5 mph 69% 0.00 in 25.0 W/m2
15:48 2.8 °F -5.1 °F 30.43 in NW 10.4 mph 10.4 mph 69% 0.00 in 25.0 W/m2
15:49 2.8 °F -5.1 °F 30.43 in NW 11.5 mph 11.5 mph 69% 0.00 in 26.0 W/m2
15:54 2.6 °F -5.3 °F 30.43 in WNW 11.5 mph 11.5 mph 69% 0.00 in 30.0 W/m2
15:55 2.6 °F -5.3 °F 30.43 in WNW 10.4 mph 10.4 mph 69% 0.00 in 30.0 W/m2
15:56 2.6 °F -5.3 °F 30.43 in WNW 10.4 mph 10.4 mph 69% 0.00 in 30.0 W/m2
16:01 2.6 °F -5.3 °F 30.43 in WNW 11.5 mph 11.5 mph 69% 0.00 in 32.0 W/m2
16:05 2.4 °F -5.2 °F 30.43 in NW 10.4 mph 10.4 mph 70% 0.00 in 32.0 W/m2
16:06 2.4 °F -5.2 °F 30.43 in NW 8.1 mph 8.1 mph 70% 0.00 in 32.0 W/m2
16:11 2.3 °F -5.3 °F 30.43 in WNW 11.5 mph 11.5 mph 70% 0.00 in 23.0 W/m2
16:12 2.3 °F -5.3 °F 30.43 in NW 11.5 mph 11.5 mph 70% 0.00 in 21.0 W/m2
16:13 2.3 °F -5.3 °F 30.44 in NW 11.5 mph 11.5 mph 70% 0.00 in 19.0 W/m2
16:17 2.1 °F -5.4 °F 30.44 in NW 8.1 mph 8.1 mph 70% 0.00 in 12.0 W/m2
16:20 2.0 °F -5.5 °F 30.44 in WNW 12.7 mph 12.7 mph 70% 0.00 in 11.0 W/m2
16:23 1.9 °F -5.6 °F 30.45 in WNW 10.4 mph 10.4 mph 70% 0.00 in 7.0 W/m2
16:28 1.8 °F -5.4 °F 30.45 in WNW 11.5 mph 11.5 mph 71% 0.00 in 5.0 W/m2
16:29 1.7 °F -5.5 °F 30.45 in West 9.2 mph 9.2 mph 71% 0.00 in 5.0 W/m2
16:33 1.6 °F -5.6 °F 30.45 in WNW 8.1 mph 8.1 mph 71% 0.00 in 0.0 W/m2
16:37 1.4 °F -5.8 °F 30.45 in WNW 9.2 mph 9.2 mph 71% 0.00 in 0.0 W/m2
16:38 1.4 °F -5.8 °F 30.45 in NW 9.0 mph 9.0 mph 71% 0.00 in 0.0 W/m2
16:43 1.3 °F -5.6 °F 30.44 in WNW 12.7 mph 12.7 mph 72% 0.00 in 0.0 W/m2
16:44 1.2 °F -5.7 °F 30.44 in West 14.0 mph 14.0 mph 72% 0.00 in 0.0 W/m2
16:49 1.1 °F -5.8 °F 30.44 in WNW 8.1 mph 8.1 mph 72% 0.00 in 0.0 W/m2
16:53 1.0 °F -5.9 °F 30.44 in NW 8.1 mph 8.1 mph 72% 0.00 in 0.0 W/m2
16:56 0.8 °F -6.1 °F 30.44 in West 11.5 mph 11.5 mph 72% 0.00 in 0.0 W/m2
17:00 0.8 °F -6.1 °F 30.45 in WNW 16.1 mph 16.1 mph 72% 0.00 in 0.0 W/m2
17:01 0.8 °F -6.1 °F 30.45 in WNW 10.4 mph 10.4 mph 72% 0.00 in 0.0 W/m2
17:06 0.7 °F -6.5 °F 30.45 in NW 8.1 mph 8.1 mph 71% 0.00 in 0.0 W/m2
17:07 0.7 °F -6.5 °F 30.45 in WNW 8.1 mph 8.1 mph 71% 0.00 in 0.0 W/m2
17:12 0.6 °F -6.6 °F 30.45 in NW 10.4 mph 10.4 mph 71% 0.00 in 0.0 W/m2
17:13 0.6 °F -6.6 °F 30.45 in WNW 10.4 mph 10.4 mph 71% 0.00 in 0.0 W/m2
17:17 0.5 °F -6.7 °F 30.45 in NW 10.4 mph 10.4 mph 71% 0.00 in 0.0 W/m2
17:19 0.5 °F -6.7 °F 30.45 in NW 9.2 mph 9.2 mph 71% 0.00 in 0.0 W/m2
17:24 0.3 °F -6.9 °F 30.46 in NW 6.9 mph 6.9 mph 71% 0.00 in 0.0 W/m2
17:26 0.2 °F -7.0 °F 30.46 in NW 9.0 mph 9.0 mph 71% 0.00 in 0.0 W/m2
17:31 0.1 °F -6.8 °F 30.47 in NW 9.0 mph 9.0 mph 72% 0.00 in 0.0 W/m2
17:36 -0.1 °F -7.0 °F 30.46 in NW 10.4 mph 10.4 mph 72% 0.00 in 0.0 W/m2
17:39 -0.2 °F -7.1 °F 30.46 in WNW 11.5 mph 11.5 mph 72% 0.00 in 0.0 W/m2
17:43 -0.5 °F -7.4 °F 30.46 in WNW 6.9 mph 6.9 mph 72% 0.00 in 0.0 W/m2
17:48 -0.6 °F -7.2 °F 30.47 in WNW 9.2 mph 9.2 mph 73% 0.00 in 0.0 W/m2
17:49 -0.6 °F -7.2 °F 30.47 in WNW 9.2 mph 9.2 mph 73% 0.00 in 0.0 W/m2
17:54 -0.8 °F -7.4 °F 30.47 in WNW 6.9 mph 6.9 mph 73% 0.00 in 0.0 W/m2
17:58 -0.9 °F -7.5 °F 30.48 in NW 9.2 mph 9.2 mph 73% 0.00 in 0.0 W/m2
17:59 -0.9 °F -7.5 °F 30.47 in WNW 11.5 mph 11.5 mph 73% 0.00 in 0.0 W/m2
18:04 -0.9 °F -7.5 °F 30.47 in WNW 11.5 mph 11.5 mph 73% 0.00 in 0.0 W/m2
18:06 -0.9 °F -7.5 °F 30.47 in NW 10.4 mph 10.4 mph 73% 0.00 in 0.0 W/m2
18:11 -0.9 °F -7.5 °F 30.48 in NW 10.4 mph 10.4 mph 73% 0.00 in 0.0 W/m2
18:16 -0.9 °F -7.5 °F 30.48 in NW 11.5 mph 11.5 mph 73% 0.00 in 0.0 W/m2
18:17 -0.9 °F -7.5 °F 30.48 in NW 9.2 mph 9.2 mph 73% 0.00 in 0.0 W/m2
18:22 -1.1 °F -7.7 °F 30.49 in WNW 6.9 mph 6.9 mph 73% 0.00 in 0.0 W/m2
18:23 -1.1 °F -7.7 °F 30.49 in WNW 7.0 mph 7.0 mph 73% 0.00 in 0.0 W/m2
18:24 -1.2 °F -7.8 °F 30.49 in NW 7.0 mph 7.0 mph 73% 0.00 in 0.0 W/m2
18:28 -1.3 °F -7.6 °F 30.49 in WNW 5.8 mph 5.8 mph 74% 0.00 in 0.0 W/m2
18:33 -1.4 °F -7.7 °F 30.49 in West 3.5 mph 3.5 mph 74% 0.00 in 0.0 W/m2
18:37 -1.6 °F -7.9 °F 30.49 in WNW 6.9 mph 6.9 mph 74% 0.00 in 0.0 W/m2
18:42 -1.7 °F -8.0 °F 30.49 in WNW 5.0 mph 5.0 mph 74% 0.00 in 0.0 W/m2
18:43 -1.8 °F -8.1 °F 30.48 in WNW 5.8 mph 5.8 mph 74% 0.00 in 0.0 W/m2
18:44 -1.8 °F -8.1 °F 30.49 in WNW 9.2 mph 9.2 mph 74% 0.00 in 0.0 W/m2
18:49 -1.9 °F -8.2 °F 30.48 in NW 9.2 mph 9.2 mph 74% 0.00 in 0.0 W/m2
18:50 -2.1 °F -8.4 °F 30.48 in NW 6.9 mph 6.9 mph 74% 0.00 in 0.0 W/m2
18:55 -2.2 °F -8.5 °F 30.48 in NW 9.2 mph 9.2 mph 74% 0.00 in 0.0 W/m2
18:56 -2.2 °F -8.5 °F 30.48 in NW 9.2 mph 9.2 mph 74% 0.00 in 0.0 W/m2
19:01 -2.3 °F -8.6 °F 30.49 in WNW 6.9 mph 6.9 mph 74% 0.00 in 0.0 W/m2
19:06 -2.2 °F -8.2 °F 30.49 in WNW 9.2 mph 9.2 mph 75% 0.00 in 0.0 W/m2
19:09 -2.1 °F -8.1 °F 30.50 in WNW 6.0 mph 6.0 mph 75% 0.00 in 0.0 W/m2
19:12 -2.1 °F -8.4 °F 30.50 in WNW 8.1 mph 8.1 mph 74% 0.00 in 0.0 W/m2
19:17 -2.2 °F -8.5 °F 30.51 in WNW 5.0 mph 5.0 mph 74% 0.00 in 0.0 W/m2
19:20 -2.2 °F -8.5 °F 30.51 in WNW 8.1 mph 8.1 mph 74% 0.00 in 0.0 W/m2
19:23 -2.3 °F -8.6 °F 30.51 in NW 9.2 mph 9.2 mph 74% 0.00 in 0.0 W/m2
19:28 -2.3 °F -8.6 °F 30.51 in NW 9.2 mph 9.2 mph 74% 0.00 in 0.0 W/m2
19:32 -2.4 °F -8.7 °F 30.51 in NW 5.8 mph 5.8 mph 74% 0.00 in 0.0 W/m2
19:36 -2.4 °F -8.7 °F 30.51 in WNW 5.8 mph 5.8 mph 74% 0.00 in 0.0 W/m2
19:40 -2.5 °F -8.7 °F 30.51 in NW 3.5 mph 3.5 mph 74% 0.00 in 0.0 W/m2
19:42 -2.5 °F -8.7 °F 30.51 in WNW 5.8 mph 5.8 mph 74% 0.00 in 0.0 W/m2
19:46 -2.3 °F -8.3 °F 30.52 in WNW 6.9 mph 6.9 mph 75% 0.00 in 0.0 W/m2
19:48 -2.3 °F -8.3 °F 30.52 in NW 6.9 mph 6.9 mph 75% 0.00 in 0.0 W/m2
19:53 -2.1 °F -8.1 °F 30.51 in NW 7.0 mph 7.0 mph 75% 0.00 in 0.0 W/m2
19:54 -2.1 °F -8.1 °F 30.51 in NW 9.2 mph 9.2 mph 75% 0.00 in 0.0 W/m2
19:59 -1.9 °F -7.9 °F 30.50 in NW 8.0 mph 8.0 mph 75% 0.00 in 0.0 W/m2
20:00 -1.9 °F -7.9 °F 30.51 in NNW 6.9 mph 6.9 mph 75% 0.00 in 0.0 W/m2
20:04 -1.9 °F -7.9 °F 30.51 in NW 9.2 mph 9.2 mph 75% 0.00 in 0.0 W/m2
20:09 -2.0 °F -8.0 °F 30.51 in NW 7.0 mph 7.0 mph 75% 0.00 in 0.0 W/m2
20:10 -2.0 °F -8.0 °F 30.51 in NW 8.1 mph 8.1 mph 75% 0.00 in 0.0 W/m2
20:14 -2.1 °F -8.1 °F 30.51 in NW 7.0 mph 7.0 mph 75% 0.00 in 0.0 W/m2
20:16 -2.1 °F -8.1 °F 30.51 in NW 7.0 mph 7.0 mph 75% 0.00 in 0.0 W/m2
20:21 -2.0 °F -7.7 °F 30.52 in NW 5.8 mph 5.8 mph 76% 0.00 in 0.0 W/m2
20:26 -1.9 °F -7.6 °F 30.52 in NW 9.2 mph 9.2 mph 76% 0.00 in 0.0 W/m2
20:28 -1.8 °F -7.5 °F 30.52 in NW 5.8 mph 5.8 mph 76% 0.00 in 0.0 W/m2
20:33 -1.8 °F -7.5 °F 30.52 in NW 8.1 mph 8.1 mph 76% 0.00 in 0.0 W/m2
20:38 -1.8 °F -7.5 °F 30.52 in NW 10.4 mph 10.4 mph 76% 0.00 in 0.0 W/m2
20:40 -1.8 °F -7.5 °F 30.52 in WNW 11.5 mph 11.5 mph 76% 0.00 in 0.0 W/m2
20:43 -1.7 °F -7.7 °F 30.52 in NW 11.5 mph 11.5 mph 75% 0.00 in 0.0 W/m2
20:48 -1.6 °F -7.6 °F 30.52 in NW 10.4 mph 10.4 mph 75% 0.00 in 0.0 W/m2
20:49 -1.6 °F -7.6 °F 30.52 in NW 9.2 mph 9.2 mph 75% 0.00 in 0.0 W/m2
20:54 -1.6 °F -7.6 °F 30.53 in WNW 5.8 mph 5.8 mph 75% 0.00 in 0.0 W/m2
20:59 -1.5 °F -7.5 °F 30.53 in WNW 8.1 mph 8.1 mph 75% 0.00 in 0.0 W/m2
21:01 -1.5 °F -7.5 °F 30.52 in NW 9.0 mph 9.0 mph 75% 0.00 in 0.0 W/m2
21:06 -1.5 °F -7.5 °F 30.52 in NW 8.1 mph 8.1 mph 75% 0.00 in 0.0 W/m2
21:07 -1.5 °F -7.5 °F 30.53 in WNW 8.1 mph 8.1 mph 75% 0.00 in 0.0 W/m2
21:13 -1.6 °F -7.6 °F 30.51 in NW 11.5 mph 11.5 mph 75% 0.00 in 0.0 W/m2
21:21 -1.5 °F -7.5 °F 30.50 in NW 11.5 mph 11.5 mph 75% 0.00 in 0.0 W/m2
21:26 -1.6 °F -7.6 °F 30.50 in NW 11.5 mph 11.5 mph 75% 0.00 in 0.0 W/m2
21:29 -1.6 °F -7.6 °F 30.50 in NW 10.4 mph 10.4 mph 75% 0.00 in 0.0 W/m2
21:34 -1.6 °F -7.6 °F 30.51 in NW 11.0 mph 11.0 mph 75% 0.00 in 0.0 W/m2
21:35 -1.6 °F -7.6 °F 30.51 in NW 11.5 mph 11.5 mph 75% 0.00 in 0.0 W/m2
21:39 -1.6 °F -7.6 °F 30.51 in NW 10.4 mph 10.4 mph 75% 0.00 in 0.0 W/m2
21:40 -1.6 °F -7.6 °F 30.51 in NW 10.4 mph 10.4 mph 75% 0.00 in 0.0 W/m2
21:45 -1.7 °F -7.7 °F 30.51 in NW 8.1 mph 8.1 mph 75% 0.00 in 0.0 W/m2
21:50 -1.7 °F -7.7 °F 30.51 in WNW 8.1 mph 8.1 mph 75% 0.00 in 0.0 W/m2
21:52 -1.7 °F -7.7 °F 30.51 in NW 9.2 mph 9.2 mph 75% 0.00 in 0.0 W/m2
21:54 -1.7 °F -7.7 °F 30.52 in NW 8.1 mph 8.1 mph 75% 0.00 in 0.0 W/m2
21:58 -1.8 °F -7.8 °F 30.51 in NW 8.1 mph 8.1 mph 75% 0.00 in 0.0 W/m2
22:03 -1.9 °F -7.9 °F 30.51 in NW 9.2 mph 9.2 mph 75% 0.00 in 0.0 W/m2
22:04 -1.9 °F -7.9 °F 30.51 in WNW 6.9 mph 6.9 mph 75% 0.00 in 0.0 W/m2
22:09 -2.1 °F -8.1 °F 30.52 in WNW 5.8 mph 5.8 mph 75% 0.00 in 0.0 W/m2
22:10 -2.1 °F -8.1 °F 30.51 in WNW 6.0 mph 6.0 mph 75% 0.00 in 0.0 W/m2
22:15 -2.2 °F -8.2 °F 30.52 in WNW 9.2 mph 9.2 mph 75% 0.00 in 0.0 W/m2
22:16 -2.3 °F -8.3 °F 30.52 in WNW 6.9 mph 6.9 mph 75% 0.00 in 0.0 W/m2
22:21 -2.4 °F -8.4 °F 30.52 in West 3.5 mph 3.5 mph 75% 0.00 in 0.0 W/m2
22:26 -2.5 °F -8.5 °F 30.52 in WNW 9.2 mph 9.2 mph 75% 0.00 in 0.0 W/m2
22:27 -2.5 °F -8.5 °F 30.52 in WNW 9.2 mph 9.2 mph 75% 0.00 in 0.0 W/m2
22:32 -2.6 °F -8.6 °F 30.52 in WNW 6.9 mph 6.9 mph 75% 0.00 in 0.0 W/m2
22:33 -2.6 °F -8.6 °F 30.52 in WNW 8.0 mph 8.0 mph 75% 0.00 in 0.0 W/m2
22:38 -2.7 °F -8.7 °F 30.52 in WNW 3.5 mph 3.7 mph 75% 0.00 in 0.0 W/m2
22:39 -2.8 °F -8.8 °F 30.52 in WNW 8.1 mph 8.1 mph 75% 0.00 in 0.0 W/m2
22:43 -2.9 °F -8.9 °F 30.52 in WNW 7.0 mph 7.0 mph 75% 0.00 in 0.0 W/m2
22:48 -3.0 °F -9.0 °F 30.52 in WNW 9.2 mph 9.2 mph 75% 0.00 in 0.0 W/m2
22:50 -3.1 °F -9.1 °F 30.52 in WNW 8.1 mph 8.1 mph 75% 0.00 in 0.0 W/m2
22:55 -3.0 °F -9.0 °F 30.52 in NW 5.8 mph 5.8 mph 75% 0.00 in 0.0 W/m2
22:57 -3.0 °F -8.7 °F 30.53 in WNW 8.1 mph 8.1 mph 76% 0.00 in 0.0 W/m2
23:02 -2.7 °F -8.4 °F 30.53 in NW 6.9 mph 6.9 mph 76% 0.00 in 0.0 W/m2
23:07 -2.4 °F -8.1 °F 30.53 in NW 10.4 mph 10.4 mph 76% 0.00 in 0.0 W/m2
23:08 -2.3 °F -8.0 °F 30.53 in NW 9.2 mph 9.2 mph 76% 0.00 in 0.0 W/m2
23:13 -2.0 °F -7.7 °F 30.53 in NW 10.4 mph 10.4 mph 76% 0.00 in 0.0 W/m2
23:14 -2.0 °F -7.7 °F 30.53 in NW 11.5 mph 11.5 mph 76% 0.00 in 0.0 W/m2
23:16 -1.9 °F -7.6 °F 30.54 in WNW 9.2 mph 9.2 mph 76% 0.00 in 0.0 W/m2
23:20 -1.7 °F -7.4 °F 30.54 in WNW 8.1 mph 8.1 mph 76% 0.00 in 0.0 W/m2
23:23 -1.7 °F -7.4 °F 30.53 in NW 9.0 mph 9.0 mph 76% 0.00 in 0.0 W/m2
23:25 -1.7 °F -7.4 °F 30.54 in NW 11.5 mph 11.5 mph 76% 0.00 in 0.0 W/m2
23:29 -1.7 °F -7.4 °F 30.54 in WNW 10.4 mph 10.4 mph 76% 0.00 in 0.0 W/m2
23:30 -1.7 °F -7.4 °F 30.54 in NW 6.0 mph 6.0 mph 76% 0.00 in 0.0 W/m2
23:32 -1.6 °F -7.3 °F 30.54 in NW 9.2 mph 9.2 mph 76% 0.00 in 0.0 W/m2
23:37 -1.6 °F -7.3 °F 30.54 in NW 8.0 mph 8.0 mph 76% 0.00 in 0.0 W/m2
23:38 -1.6 °F -7.3 °F 30.54 in NW 8.1 mph 8.1 mph 76% 0.00 in 0.0 W/m2
23:43 -1.5 °F -7.2 °F 30.54 in WNW 8.1 mph 8.1 mph 76% 0.00 in 0.0 W/m2
23:45 -1.4 °F -7.1 °F 30.54 in NW 9.2 mph 9.2 mph 76% 0.00 in 0.0 W/m2
23:50 -1.4 °F -7.1 °F 30.54 in WNW 5.8 mph 5.8 mph 76% 0.00 in 0.0 W/m2
23:51 -1.3 °F -7.0 °F 30.54 in WNW 4.6 mph 4.6 mph 76% 0.00 in 0.0 W/m2
23:55 -1.3 °F -7.0 °F 30.54 in NW 9.2 mph 9.2 mph 76% 0.00 in 0.0 W/m2
Bourbonnais, Illinois, USA
Compliments of Weather Underground - 4 mb